Time;durP1;ratioP1;P1;durP2;ratioP2;P2;SDS_P1;SDS_P2;PMS_P1;PMS_P2;Temp;Humidity;BMP_temperature;BMP_pressure;BME280_temperature;BME280_humidity;BME280_pressure;Samples;Min_cycle;Max_cycle;Signal;HPM_P1;HPM_P2
2022/07/13 00:00:17;;;;;;;15.10;13.63;;;19.00;88.50;;;;;;5051781;28;20024;-50
2022/07/13 00:02:42;;;;;;;13.65;12.25;;;19.00;88.50;;;;;;5052665;28;20031;-48
2022/07/13 00:05:11;;;;;;;14.52;12.50;;;19.00;88.50;;;;;;5051873;28;20076;-46
2022/07/13 00:07:38;;;;;;;15.10;13.60;;;19.00;88.40;;;;;;5069569;28;20037;-46
2022/07/13 00:10:04;;;;;;;13.50;12.20;;;19.00;88.30;;;;;;5051754;28;20082;-47
2022/07/13 00:12:30;;;;;;;14.38;13.00;;;19.10;88.30;;;;;;5051817;28;20028;-50
2022/07/13 00:14:57;;;;;;;14.18;12.68;;;19.00;88.30;;;;;;5061615;28;20037;-49
2022/07/13 00:17:26;;;;;;;13.00;11.60;;;19.10;88.20;;;;;;5058166;28;20394;-49
2022/07/13 00:19:52;;;;;;;13.23;11.93;;;19.10;88.20;;;;;;5051471;28;20028;-46
2022/07/13 00:22:17;;;;;;;14.90;13.27;;;19.10;88.10;;;;;;5051755;28;20024;-47
2022/07/13 00:24:43;;;;;;;15.02;12.02;;;19.10;88.10;;;;;;5069534;28;20461;-50
2022/07/13 00:27:11;;;;;;;12.77;11.57;;;19.10;88.10;;;;;;5069289;28;20051;-49
2022/07/13 00:29:37;;;;;;;14.65;13.23;;;19.10;88.00;;;;;;5069023;28;20025;-48
2022/07/13 00:32:03;;;;;;;12.70;11.50;;;19.10;88.00;;;;;;5068793;28;20040;-48
2022/07/13 00:34:30;;;;;;;11.15;10.05;;;19.10;88.00;;;;;;5055001;28;20033;-50
2022/07/13 00:36:56;;;;;;;11.70;10.55;;;19.10;88.00;;;;;;5068325;28;20025;-46
2022/07/13 00:39:22;;;;;;;12.45;11.25;;;19.10;87.90;;;;;;5049663;28;20093;-48
2022/07/13 00:41:48;;;;;;;11.77;10.63;;;19.10;87.90;;;;;;5068467;28;20501;-46
2022/07/13 00:44:15;;;;;;;11.45;10.38;;;19.10;88.00;;;;;;5067857;28;20067;-46
2022/07/13 00:46:44;;;;;;;12.45;11.15;;;19.00;88.00;;;;;;5068790;28;20025;-47
2022/07/13 00:49:11;;;;;;;12.43;11.23;;;19.00;88.10;;;;;;5068290;28;20028;-50
2022/07/13 00:51:37;;;;;;;10.93;9.75;;;19.00;88.10;;;;;;5069137;28;20025;-47
2022/07/13 00:54:04;;;;;;;14.95;13.48;;;19.00;88.10;;;;;;5048404;28;20472;-48
2022/07/13 00:56:30;;;;;;;13.68;11.70;;;18.90;88.20;;;;;;5069260;28;20426;-46
2022/07/13 00:58:58;;;;;;;11.48;10.27;;;18.90;88.20;;;;;;5068798;28;20016;-49
2022/07/13 01:01:23;;;;;;;12.90;10.80;;;18.90;88.30;;;;;;5069003;28;20063;-47
2022/07/13 01:03:49;;;;;;;11.02;10.02;;;18.90;88.30;;;;;;5069043;28;20410;-47
2022/07/13 01:06:16;;;;;;;14.15;11.00;;;18.90;88.30;;;;;;5068329;28;20104;-50
2022/07/13 01:08:42;;;;;;;12.00;10.80;;;18.90;88.30;;;;;;5068420;28;20475;-50
2022/07/13 01:11:08;;;;;;;11.50;10.35;;;18.90;88.30;;;;;;5068691;28;20045;-47
2022/07/13 01:13:35;;;;;;;11.95;10.85;;;18.90;88.40;;;;;;5051482;28;20414;-46
2022/07/13 01:16:02;;;;;;;11.80;10.70;;;18.90;88.40;;;;;;5068765;28;20062;-49
2022/07/13 01:18:28;;;;;;;10.77;9.77;;;18.90;88.30;;;;;;5063943;28;20017;-49
2022/07/13 01:20:56;;;;;;;11.18;10.07;;;18.90;88.30;;;;;;5030897;28;20067;-46
2022/07/13 01:23:22;;;;;;;10.10;8.70;;;18.90;88.20;;;;;;5051024;28;20803;-47
2022/07/13 01:25:48;;;;;;;10.68;9.68;;;18.90;88.20;;;;;;5068802;28;20058;-52
2022/07/13 01:28:14;;;;;;;9.68;8.70;;;18.90;88.10;;;;;;5068676;28;20059;-52
2022/07/13 01:30:39;;;;;;;8.48;7.68;;;18.90;88.10;;;;;;5068478;28;20032;-47
2022/07/13 01:33:05;;;;;;;10.18;8.57;;;18.90;88.00;;;;;;5050623;28;20043;-48
2022/07/13 01:35:31;;;;;;;10.30;7.53;;;18.90;87.80;;;;;;5068556;28;20082;-45
2022/07/13 01:37:57;;;;;;;9.00;7.88;;;18.90;87.70;;;;;;5058645;28;20595;-46
2022/07/13 01:40:23;;;;;;;7.82;6.75;;;18.90;87.60;;;;;;5050407;28;20024;-46
2022/07/13 01:42:51;;;;;;;7.82;7.13;;;18.90;87.50;;;;;;5045198;28;20088;-46
2022/07/13 01:45:23;;;;;;;7.32;6.18;;;18.90;87.40;;;;;;5063965;28;20086;-45
2022/07/13 01:47:51;;;;;;;6.85;6.25;;;18.90;87.30;;;;;;5048744;28;20035;-46
2022/07/13 01:50:21;;;;;;;7.35;6.20;;;18.90;87.10;;;;;;5048296;28;20079;-46
2022/07/13 01:52:48;;;;;;;7.28;5.80;;;18.90;86.90;;;;;;5034403;28;20090;-48
2022/07/13 01:55:14;;;;;;;7.90;6.20;;;18.90;86.70;;;;;;5052130;28;20061;-46
2022/07/13 01:57:43;;;;;;;4.97;4.47;;;18.90;86.60;;;;;;5052205;28;20035;-46
2022/07/13 02:00:27;;;;;;;6.90;5.28;;;18.90;86.60;;;;;;5051982;28;20596;-46
2022/07/13 02:02:53;;;;;;;5.78;4.70;;;18.90;86.40;;;;;;5051663;28;20431;-50
2022/07/13 02:05:19;;;;;;;5.30;4.65;;;18.90;86.30;;;;;;5052128;28;20064;-46
2022/07/13 02:07:45;;;;;;;5.65;5.03;;;18.90;86.20;;;;;;5052451;28;20071;-46
2022/07/13 02:10:12;;;;;;;7.25;4.90;;;18.90;86.00;;;;;;5051960;28;20083;-45
2022/07/13 02:12:41;;;;;;;5.00;4.38;;;18.90;85.60;;;;;;5034450;28;20037;-48
2022/07/13 02:15:08;;;;;;;4.47;3.80;;;18.90;85.70;;;;;;5033886;28;20033;-46
2022/07/13 02:17:34;;;;;;;4.65;4.00;;;18.90;85.60;;;;;;5052223;28;20025;-46
2022/07/13 02:19:59;;;;;;;4.78;3.70;;;18.90;85.70;;;;;;5033725;28;20033;-45
2022/07/13 02:22:25;;;;;;;11.10;3.97;;;18.90;85.70;;;;;;5051848;28;20346;-47
2022/07/13 02:24:51;;;;;;;6.30;4.50;;;18.90;85.60;;;;;;5051688;28;20095;-46
2022/07/13 02:27:16;;;;;;;7.55;4.20;;;18.90;85.60;;;;;;5034229;28;20064;-46
2022/07/13 02:29:42;;;;;;;5.57;3.95;;;18.90;85.40;;;;;;5033922;28;20094;-46
2022/07/13 02:32:08;;;;;;;6.22;4.05;;;18.90;85.50;;;;;;5051567;28;20052;-46
2022/07/13 02:34:33;;;;;;;6.43;3.70;;;18.90;85.50;;;;;;5051110;28;20033;-46
2022/07/13 02:37:01;;;;;;;7.13;4.30;;;18.90;85.40;;;;;;5051383;28;20025;-47
2022/07/13 02:39:27;;;;;;;6.72;4.00;;;18.90;85.40;;;;;;5051102;28;20335;-45
2022/07/13 02:41:57;;;;;;;4.30;3.83;;;18.90;85.50;;;;;;5065167;28;20132;-46
2022/07/13 02:44:25;;;;;;;4.20;3.60;;;18.90;85.50;;;;;;5068593;28;20453;-48
2022/07/13 02:46:50;;;;;;;5.13;3.78;;;18.90;85.50;;;;;;5071232;28;20090;-45
2022/07/13 02:49:16;;;;;;;4.35;3.58;;;18.90;85.60;;;;;;5071238;28;20392;-47
2022/07/13 02:51:41;;;;;;;5.03;4.40;;;18.90;85.60;;;;;;5070986;28;20644;-47
2022/07/13 02:54:07;;;;;;;4.47;3.88;;;18.90;85.70;;;;;;5070676;28;20093;-48
2022/07/13 02:56:33;;;;;;;4.65;3.67;;;18.80;85.60;;;;;;5058325;28;20021;-46
2022/07/13 02:58:58;;;;;;;4.60;4.05;;;18.90;85.70;;;;;;5071068;28;20032;-46
2022/07/13 03:01:24;;;;;;;10.38;4.65;;;18.80;85.60;;;;;;5053459;28;20016;-46
2022/07/13 03:03:50;;;;;;;5.20;3.75;;;18.80;85.60;;;;;;5052354;28;20024;-46
2022/07/13 03:06:16;;;;;;;6.68;4.93;;;18.80;85.70;;;;;;5071280;28;20031;-46
2022/07/13 03:08:41;;;;;;;6.25;3.75;;;18.80;85.70;;;;;;5070973;28;20426;-46
2022/07/13 03:11:07;;;;;;;6.10;4.00;;;18.80;85.70;;;;;;5070874;28;20033;-46
2022/07/13 03:13:32;;;;;;;7.22;4.22;;;18.80;85.60;;;;;;5071002;28;20059;-46
2022/07/13 03:15:58;;;;;;;6.82;4.47;;;18.80;85.60;;;;;;5070724;28;20036;-48
2022/07/13 03:18:26;;;;;;;4.95;4.45;;;18.80;85.60;;;;;;5070436;28;20044;-46
2022/07/13 03:20:52;;;;;;;5.78;4.40;;;18.80;85.60;;;;;;5069785;28;20073;-49
2022/07/13 03:23:19;;;;;;;5.15;4.53;;;18.80;85.60;;;;;;5070581;28;20092;-48
2022/07/13 03:25:48;;;;;;;4.70;4.18;;;18.80;85.50;;;;;;5070146;28;20408;-50
2022/07/13 03:28:16;;;;;;;8.35;4.57;;;18.80;85.50;;;;;;5070436;28;20089;-46
2022/07/13 03:30:42;;;;;;;5.82;4.18;;;18.80;85.40;;;;;;5069510;28;20106;-46
2022/07/13 03:33:07;;;;;;;8.30;4.28;;;18.80;85.30;;;;;;5069676;28;20032;-45
2022/07/13 03:35:33;;;;;;;6.82;4.78;;;18.80;85.30;;;;;;5051798;28;20064;-45
2022/07/13 03:37:59;;;;;;;4.95;4.20;;;18.80;85.20;;;;;;5069585;28;20100;-48
2022/07/13 03:40:25;;;;;;;4.97;4.13;;;18.80;85.20;;;;;;5069379;28;20048;-45
2022/07/13 03:42:51;;;;;;;6.13;4.20;;;18.80;85.10;;;;;;5050763;28;20120;-46
2022/07/13 03:45:16;;;;;;;5.35;4.10;;;18.90;85.10;;;;;;5069403;28;20458;-46
2022/07/13 03:47:42;;;;;;;5.60;4.05;;;18.90;85.00;;;;;;5069141;28;20481;-47
2022/07/13 03:50:11;;;;;;;4.47;3.65;;;18.90;84.90;;;;;;5069091;28;20029;-49
2022/07/13 03:52:36;;;;;;;5.80;3.78;;;18.90;84.80;;;;;;5068802;28;20422;-49
2022/07/13 03:55:08;;;;;;;7.25;4.75;;;18.90;84.70;;;;;;5069045;28;20078;-46
2022/07/13 03:57:34;;;;;;;6.68;4.97;;;18.90;84.70;;;;;;5069133;28;20054;-46
2022/07/13 04:00:00;;;;;;;5.80;4.38;;;18.90;84.60;;;;;;5034947;28;20033;-48
2022/07/13 04:02:25;;;;;;;5.63;4.75;;;19.00;84.50;;;;;;5052225;28;20022;-46
2022/07/13 04:04:51;;;;;;;6.32;4.45;;;19.00;84.30;;;;;;5069849;28;20523;-47
2022/07/13 04:07:17;;;;;;;6.28;4.57;;;19.10;84.00;;;;;;5069805;28;20039;-46
2022/07/13 04:09:42;;;;;;;6.20;5.13;;;19.10;84.00;;;;;;5069748;28;20033;-45
2022/07/13 04:12:08;;;;;;;5.30;4.35;;;19.10;83.90;;;;;;5069377;28;20353;-46
2022/07/13 04:14:34;;;;;;;6.68;5.97;;;19.20;83.80;;;;;;5051731;28;20123;-46
2022/07/13 04:17:02;;;;;;;6.88;6.25;;;19.20;83.50;;;;;;5051523;28;20028;-52
2022/07/13 04:19:30;;;;;;;6.65;5.20;;;19.20;83.50;;;;;;5069428;28;20099;-48
2022/07/13 04:21:56;;;;;;;6.07;5.40;;;19.20;83.40;;;;;;5051527;28;20043;-47
2022/07/13 04:24:22;;;;;;;6.85;6.10;;;19.30;83.30;;;;;;5069749;28;20032;-45
2022/07/13 04:26:48;;;;;;;7.40;5.75;;;19.40;83.10;;;;;;5069373;28;20476;-48
2022/07/13 04:29:13;;;;;;;8.48;6.03;;;19.40;83.10;;;;;;5069235;28;20032;-46
2022/07/13 04:31:41;;;;;;;7.38;6.18;;;19.40;83.00;;;;;;5046905;28;20071;-48
2022/07/13 04:34:07;;;;;;;6.05;4.22;;;19.40;82.80;;;;;;5069220;28;20029;-46
2022/07/13 04:36:33;;;;;;;7.32;5.07;;;19.40;82.70;;;;;;5051425;28;20040;-46
2022/07/13 04:38:58;;;;;;;8.88;5.38;;;19.40;82.70;;;;;;5069077;28;20473;-46
2022/07/13 04:41:24;;;;;;;4.78;4.28;;;19.40;82.60;;;;;;5068440;28;20519;-48
2022/07/13 04:43:50;;;;;;;5.57;4.95;;;19.50;82.50;;;;;;5067778;28;20103;-46
2022/07/13 04:46:16;;;;;;;5.97;5.05;;;19.50;82.40;;;;;;5068423;28;20367;-50
2022/07/13 04:48:41;;;;;;;7.43;4.78;;;19.60;82.30;;;;;;5049816;28;20043;-46
2022/07/13 04:51:08;;;;;;;6.75;5.53;;;19.60;82.20;;;;;;5052225;28;20032;-46
2022/07/13 04:53:34;;;;;;;6.45;4.90;;;19.60;81.90;;;;;;5049850;28;20036;-48
2022/07/13 04:56:02;;;;;;;9.13;6.00;;;19.60;81.60;;;;;;5067872;28;20056;-46
2022/07/13 04:58:27;;;;;;;6.85;5.28;;;19.60;81.50;;;;;;5065620;28;20031;-47
2022/07/13 05:00:53;;;;;;;5.38;4.63;;;19.60;81.50;;;;;;5067360;28;20429;-50
2022/07/13 05:03:19;;;;;;;7.53;4.63;;;19.60;81.60;;;;;;5067941;28;20047;-46
2022/07/13 05:05:45;;;;;;;5.63;4.80;;;19.60;81.60;;;;;;5050850;28;20115;-47
2022/07/13 05:08:11;;;;;;;6.05;4.55;;;19.70;81.60;;;;;;5068509;28;20516;-46
2022/07/13 05:10:37;;;;;;;8.40;6.25;;;19.70;81.50;;;;;;5068822;28;20408;-48
2022/07/13 05:13:02;;;;;;;5.30;4.55;;;19.70;81.00;;;;;;5068678;28;20050;-48
2022/07/13 05:15:28;;;;;;;6.00;5.18;;;19.80;81.30;;;;;;5050003;28;20048;-48
2022/07/13 05:17:54;;;;;;;7.22;4.95;;;19.80;81.20;;;;;;5050467;28;20058;-46
2022/07/13 05:20:20;;;;;;;7.72;5.10;;;19.80;80.70;;;;;;5049845;28;20020;-46
2022/07/13 05:22:48;;;;;;;6.03;4.60;;;19.90;80.80;;;;;;5067700;28;20465;-45
2022/07/13 05:25:13;;;;;;;5.45;4.63;;;19.90;80.70;;;;;;5049583;28;20042;-46
2022/07/13 05:27:41;;;;;;;6.78;5.53;;;19.90;81.00;;;;;;5068820;28;20082;-47
2022/07/13 05:30:08;;;;;;;6.57;5.40;;;19.90;80.70;;;;;;5069858;28;20093;-47
2022/07/13 05:32:33;;;;;;;6.10;5.15;;;19.90;80.60;;;;;;5070140;28;20040;-46
2022/07/13 05:34:59;;;;;;;5.65;4.70;;;20.00;80.60;;;;;;5071012;28;20358;-47
2022/07/13 05:37:24;;;;;;;8.88;5.38;;;20.00;80.60;;;;;;5070216;28;20025;-46
2022/07/13 05:39:50;;;;;;;5.90;4.70;;;20.00;80.70;;;;;;5052976;28;20024;-47
2022/07/13 05:42:18;;;;;;;5.57;4.95;;;20.00;80.70;;;;;;5054040;28;20099;-46
2022/07/13 05:44:43;;;;;;;7.45;5.07;;;20.00;80.30;;;;;;5070960;28;20063;-46
2022/07/13 05:47:09;;;;;;;7.47;6.43;;;20.00;80.40;;;;;;5052420;28;20121;-50
2022/07/13 05:49:35;;;;;;;7.78;5.45;;;20.10;80.00;;;;;;5070499;28;20381;-48
2022/07/13 05:52:00;;;;;;;8.82;5.72;;;20.10;80.00;;;;;;5068915;28;20131;-49
2022/07/13 05:54:26;;;;;;;6.10;5.45;;;20.10;80.00;;;;;;5071525;28;20034;-48
2022/07/13 05:56:53;;;;;;;8.13;5.55;;;20.20;80.00;;;;;;5068258;28;20437;-48
2022/07/13 05:59:20;;;;;;;5.95;5.35;;;20.20;79.80;;;;;;5054036;28;20024;-48
2022/07/13 06:01:47;;;;;;;7.97;6.50;;;20.20;80.00;;;;;;5070947;28;20032;-49
2022/07/13 06:04:15;;;;;;;9.48;5.90;;;20.30;79.80;;;;;;5070917;28;20028;-49
2022/07/13 06:06:41;;;;;;;7.38;5.70;;;20.30;79.70;;;;;;5053980;28;20032;-52
2022/07/13 06:09:06;;;;;;;6.80;4.97;;;20.30;80.10;;;;;;5070343;28;20059;-48
2022/07/13 06:11:32;;;;;;;6.30;5.15;;;20.40;80.10;;;;;;5052835;28;20040;-48
2022/07/13 06:13:57;;;;;;;6.47;5.38;;;20.40;79.90;;;;;;5071461;28;20048;-49
2022/07/13 06:16:23;;;;;;;6.82;5.90;;;20.40;80.10;;;;;;5071835;28;20029;-50
2022/07/13 06:18:49;;;;;;;5.47;4.95;;;20.40;79.90;;;;;;5071633;28;20024;-48
2022/07/13 06:21:14;;;;;;;7.32;6.63;;;20.40;79.70;;;;;;5071767;28;20024;-50
2022/07/13 06:23:40;;;;;;;8.55;6.03;;;20.40;79.30;;;;;;5071687;28;20315;-50
2022/07/13 06:26:06;;;;;;;9.18;6.43;;;20.40;79.30;;;;;;5054023;28;20029;-49
2022/07/13 06:28:34;;;;;;;6.18;5.57;;;20.40;79.50;;;;;;5053932;28;20388;-49
2022/07/13 06:31:00;;;;;;;7.50;6.80;;;20.40;79.70;;;;;;5070889;28;20082;-49
2022/07/13 06:33:28;;;;;;;7.70;6.22;;;20.40;79.40;;;;;;5060013;28;20052;-49
2022/07/13 06:35:53;;;;;;;8.02;6.88;;;20.50;79.60;;;;;;5036343;28;20097;-50
2022/07/13 06:38:19;;;;;;;8.07;7.22;;;20.60;79.50;;;;;;5053203;28;20107;-50
2022/07/13 06:40:49;;;;;;;6.97;6.28;;;20.70;79.60;;;;;;5052931;28;20043;-49
2022/07/13 06:43:15;;;;;;;7.88;5.40;;;20.80;79.10;;;;;;5071903;28;20433;-49
2022/07/13 06:45:41;;;;;;;8.55;7.22;;;20.90;78.40;;;;;;5064795;28;20070;-49
2022/07/13 06:48:08;;;;;;;9.27;8.35;;;20.90;78.00;;;;;;5054024;28;20075;-51
2022/07/13 06:50:34;;;;;;;7.65;6.85;;;21.10;78.00;;;;;;5070962;28;20066;-49
2022/07/13 06:53:00;;;;;;;7.95;7.15;;;21.40;77.70;;;;;;5044825;28;20041;-51
2022/07/13 06:55:28;;;;;;;9.90;7.15;;;21.50;77.40;;;;;;5064902;28;20102;-56
2022/07/13 06:57:55;;;;;;;8.98;8.07;;;21.70;77.40;;;;;;5067648;28;20020;-52
2022/07/13 07:00:20;;;;;;;8.07;7.28;;;21.70;76.40;;;;;;5083622;28;20090;-49
2022/07/13 07:02:46;;;;;;;10.57;7.82;;;21.80;76.40;;;;;;5061895;28;20471;-54
2022/07/13 07:05:12;;;;;;;8.20;7.38;;;21.90;76.50;;;;;;5050003;28;20028;-49
2022/07/13 07:07:39;;;;;;;8.07;7.28;;;22.10;76.20;;;;;;5052736;28;20094;-54
2022/07/13 07:10:05;;;;;;;9.18;8.25;;;22.20;76.20;;;;;;5067785;28;20021;-49
2022/07/13 07:12:31;;;;;;;11.10;8.18;;;22.30;75.30;;;;;;5050304;28;20032;-55
2022/07/13 07:14:56;;;;;;;8.38;7.57;;;22.50;74.90;;;;;;5067486;28;20880;-49
2022/07/13 07:17:24;;;;;;;10.48;9.30;;;22.80;75.80;;;;;;5050559;28;20020;-49
2022/07/13 07:19:51;;;;;;;11.55;7.88;;;22.90;73.20;;;;;;5067801;28;20404;-53
2022/07/13 07:22:17;;;;;;;10.07;8.73;;;23.00;73.10;;;;;;5067555;28;20520;-49
2022/07/13 07:24:45;;;;;;;10.48;9.38;;;23.30;73.40;;;;;;5066902;28;20127;-47
2022/07/13 07:27:11;;;;;;;10.95;8.45;;;23.40;72.60;;;;;;5067906;28;20036;-48
2022/07/13 07:29:37;;;;;;;9.95;8.82;;;23.70;72.00;;;;;;5067116;28;20028;-47
2022/07/13 07:32:04;;;;;;;11.13;9.18;;;23.90;72.00;;;;;;5067469;28;20021;-46
2022/07/13 07:34:30;;;;;;;12.10;11.00;;;24.20;69.50;;;;;;5066785;28;20028;-48
2022/07/13 07:36:58;;;;;;;10.57;9.48;;;24.40;69.30;;;;;;5067072;28;20041;-48
2022/07/13 07:39:24;;;;;;;11.18;9.25;;;24.40;68.40;;;;;;5067585;28;20093;-52
2022/07/13 07:41:50;;;;;;;11.07;9.90;;;24.50;68.20;;;;;;5065920;28;20030;-50
2022/07/13 07:44:15;;;;;;;9.65;8.75;;;24.40;68.90;;;;;;5065981;28;20106;-49
2022/07/13 07:46:41;;;;;;;11.05;9.95;;;24.60;68.60;;;;;;5048377;28;20083;-48
2022/07/13 07:49:07;;;;;;;11.40;10.02;;;24.90;68.90;;;;;;5066076;28;20028;-47
2022/07/13 07:51:33;;;;;;;15.50;9.68;;;25.00;67.90;;;;;;5066770;28;20032;-49
2022/07/13 07:53:58;;;;;;;9.38;8.38;;;25.20;66.90;;;;;;5066601;28;20039;-49
2022/07/13 07:56:24;;;;;;;11.32;10.13;;;25.50;65.30;;;;;;5049591;28;20033;-51
2022/07/13 07:58:50;;;;;;;11.50;10.30;;;25.50;65.30;;;;;;5066981;28;20078;-46
2022/07/13 08:01:18;;;;;;;10.38;9.25;;;25.60;65.20;;;;;;5066447;28;20038;-47
2022/07/13 08:03:46;;;;;;;9.48;8.48;;;25.40;65.50;;;;;;5032325;28;20802;-50
2022/07/13 08:06:12;;;;;;;11.40;10.27;;;25.80;66.20;;;;;;5066002;28;20082;-49
2022/07/13 08:08:38;;;;;;;11.52;10.35;;;26.00;65.40;;;;;;5048676;28;20028;-49
2022/07/13 08:11:07;;;;;;;12.38;8.60;;;26.20;64.10;;;;;;5042937;28;20060;-48
2022/07/13 08:13:33;;;;;;;11.60;10.05;;;26.30;64.20;;;;;;5066066;28;20502;-48
2022/07/13 08:16:02;;;;;;;12.82;10.52;;;26.40;63.90;;;;;;5031662;28;20048;-48
2022/07/13 08:18:27;;;;;;;13.52;12.23;;;26.40;64.00;;;;;;5048587;28;20027;-47
2022/07/13 08:20:53;;;;;;;12.82;11.55;;;26.60;63.10;;;;;;5048894;28;20024;-49
2022/07/13 08:26:03;;;;;;;11.82;10.60;;;27.40;60.80;;;;;;5063738;28;20039;-49
2022/07/13 08:28:28;;;;;;;11.65;10.52;;;27.60;60.50;;;;;;5045225;28;21394;-48
2022/07/13 08:30:54;;;;;;;13.10;11.80;;;27.90;59.90;;;;;;5060725;28;20029;-50
2022/07/13 08:38:34;;;;;;;13.38;11.98;;;28.00;59.60;;;;;;5065912;28;20028;-46
2022/07/13 08:38:49;;;;;;;14.90;13.23;;;28.40;61.60;;;;;;5066689;28;20027;-47
2022/07/13 08:41:17;;;;;;;14.43;10.82;;;28.80;57.00;;;;;;5065640;28;20408;-47
2022/07/13 08:43:43;;;;;;;17.92;11.32;;;28.90;57.90;;;;;;5038230;28;20859;-47
2022/07/13 08:46:09;;;;;;;12.80;11.57;;;29.00;57.50;;;;;;5028467;28;20024;-52
2022/07/13 08:48:38;;;;;;;13.93;12.70;;;29.10;57.50;;;;;;5045344;28;20021;-47
2022/07/13 08:51:04;;;;;;;;;;;28.80;56.90;;;;;;5046089;28;20025;-52
2022/07/13 08:53:30;;;;;;;14.88;13.35;;;28.60;56.90;;;;;;5045451;28;20318;-52
2022/07/13 08:55:58;;;;;;;17.15;13.93;;;28.50;57.10;;;;;;5046169;28;20036;-47
2022/07/13 08:58:24;;;;;;;15.57;12.47;;;28.40;59.60;;;;;;5028857;28;20032;-47
2022/07/13 09:00:50;;;;;;;12.65;11.27;;;28.40;59.20;;;;;;5045450;28;20021;-47
2022/07/13 09:03:16;;;;;;;14.95;13.57;;;28.40;60.60;;;;;;5027707;28;20102;-47
2022/07/13 09:05:43;;;;;;;13.10;11.75;;;28.40;58.80;;;;;;5028124;28;20029;-47
2022/07/13 09:08:10;;;;;;;14.38;12.90;;;28.40;59.90;;;;;;5027622;28;20041;-47
2022/07/13 09:11:05;;;;;;;14.43;13.10;;;28.60;57.80;;;;;;5045212;28;20021;-50
2022/07/13 09:13:51;;;;;;;15.07;12.80;;;28.90;58.90;;;;;;5012513;28;20029;-51
2022/07/13 09:16:28;;;;;;;13.80;12.60;;;28.70;59.00;;;;;;5045149;28;20036;-50
2022/07/13 09:18:59;;;;;;;13.85;12.45;;;28.60;59.70;;;;;;5057266;28;20021;-49
2022/07/13 09:21:27;;;;;;;14.43;12.93;;;28.90;59.30;;;;;;5028050;28;20057;-54
2022/07/13 09:24:03;;;;;;;18.92;15.32;;;28.80;59.00;;;;;;5045569;28;20032;-49
2022/07/13 09:26:42;;;;;;;14.02;12.60;;;29.00;57.30;;;;;;5044357;28;20124;-48
2022/07/13 09:29:08;;;;;;;18.55;16.88;;;28.90;55.20;;;;;;5044216;28;20074;-46
2022/07/13 09:31:55;;;;;;;16.13;14.73;;;28.80;55.30;;;;;;5044452;28;20033;-46
2022/07/13 09:34:41;;;;;;;17.85;15.90;;;28.70;54.50;;;;;;5044810;28;20037;-49
2022/07/13 09:37:11;;;;;;;16.42;13.85;;;28.40;56.00;;;;;;5044232;28;20068;-47
2022/07/13 09:39:55;;;;;;;18.33;16.33;;;28.50;56.30;;;;;;5044075;28;20116;-49
2022/07/13 09:42:28;;;;;;;19.25;17.17;;;28.40;56.40;;;;;;5043836;28;20025;-47
2022/07/13 09:47:48;;;;;;;13.67;11.43;;;28.00;58.60;;;;;;5044025;28;20044;-52
2022/07/13 09:50:17;;;;;;;15.27;13.82;;;28.30;58.90;;;;;;5044302;28;20029;-53
2022/07/13 09:52:43;;;;;;;16.30;14.65;;;28.40;57.80;;;;;;5043556;28;20114;-51
2022/07/13 09:55:15;;;;;;;15.90;14.40;;;28.40;57.10;;;;;;5027509;28;20032;-47
2022/07/13 09:57:51;;;;;;;16.35;14.73;;;28.50;57.10;;;;;;5010881;28;20453;-50
2022/07/13 10:00:17;;;;;;;16.25;14.30;;;28.70;57.20;;;;;;5042193;28;20076;-47
2022/07/13 10:02:47;;;;;;;17.40;15.68;;;28.80;57.30;;;;;;5043459;28;20025;-47
2022/07/13 10:05:14;;;;;;;22.42;20.27;;;29.00;55.30;;;;;;5027573;28;20120;-48
2022/07/13 10:07:43;;;;;;;17.92;16.25;;;28.90;57.20;;;;;;5039446;28;20103;-48
2022/07/13 10:10:11;;;;;;;21.73;19.70;;;28.90;58.90;;;;;;5045037;28;20034;-46
2022/07/13 10:12:37;;;;;;;21.67;19.67;;;28.90;58.60;;;;;;5046661;28;20067;-47
2022/07/13 10:15:04;;;;;;;19.95;18.10;;;28.80;58.10;;;;;;5047534;28;20126;-47
2022/07/13 10:17:30;;;;;;;20.60;18.80;;;28.60;58.90;;;;;;5027890;28;20481;-48
2022/07/13 10:19:58;;;;;;;20.52;18.83;;;28.60;58.90;;;;;;5048007;28;20036;-49
2022/07/13 10:22:27;;;;;;;20.20;18.05;;;28.50;58.20;;;;;;5045525;28;20037;-48
2022/07/13 10:24:58;;;;;;;21.10;18.97;;;28.00;58.80;;;;;;5030801;28;20453;-47
2022/07/13 10:27:31;;;;;;;23.73;21.45;;;28.00;59.00;;;;;;5048060;28;20033;-46
2022/07/13 10:30:22;;;;;;;18.83;16.92;;;28.10;58.00;;;;;;5027714;28;20032;-46
2022/07/13 10:32:48;;;;;;;20.48;18.77;;;27.90;60.80;;;;;;5049054;28;20056;-50
2022/07/13 10:35:20;;;;;;;18.13;16.42;;;27.90;59.10;;;;;;5013733;28;20508;-50
2022/07/13 10:38:03;;;;;;;19.98;18.27;;;27.90;60.40;;;;;;5048365;28;20029;-50
2022/07/13 10:40:30;;;;;;;20.17;17.90;;;27.90;58.20;;;;;;5044821;28;20123;-47
2022/07/13 10:43:04;;;;;;;16.88;15.38;;;28.00;58.90;;;;;;5049230;28;20064;-46
2022/07/13 10:45:32;;;;;;;18.88;17.17;;;28.20;59.30;;;;;;5067366;28;20038;-47
2022/07/13 10:48:21;;;;;;;24.70;13.60;;;28.20;57.60;;;;;;5067420;28;20032;-47
2022/07/13 10:50:54;;;;;;;15.43;13.85;;;28.20;59.60;;;;;;5053320;28;20072;-49
2022/07/13 10:53:42;;;;;;;15.48;13.98;;;28.20;58.00;;;;;;5067707;28;20417;-46
2022/07/13 10:56:17;;;;;;;13.52;12.23;;;28.10;55.60;;;;;;5065936;28;20051;-50
2022/07/13 10:58:44;;;;;;;10.20;9.10;;;28.00;56.00;;;;;;5068031;28;20044;-47
2022/07/13 11:01:36;;;;;;;16.60;8.50;;;27.80;57.00;;;;;;5067324;28;20516;-48
2022/07/13 11:04:08;;;;;;;5.82;3.95;;;27.90;57.60;;;;;;5065827;28;20025;-46
2022/07/13 11:06:34;;;;;;;5.20;3.38;;;27.90;53.30;;;;;;5049969;28;20025;-48
2022/07/13 11:09:06;;;;;;;3.15;1.90;;;27.60;51.50;;;;;;5050340;28;20103;-47
2022/07/13 11:11:46;;;;;;;4.45;1.52;;;27.70;48.50;;;;;;5067963;28;20530;-48
2022/07/13 11:14:39;;;;;;;3.85;1.73;;;27.50;44.30;;;;;;5067311;28;20032;-51
2022/07/13 11:17:16;;;;;;;4.38;1.98;;;27.40;44.90;;;;;;5067262;28;20048;-50
2022/07/13 11:19:58;;;;;;;7.53;1.77;;;27.40;44.90;;;;;;5066311;28;20037;-48
2022/07/13 11:25:32;;;;;;;3.67;1.85;;;27.50;44.60;;;;;;5065440;28;20137;-51
2022/07/13 11:28:25;;;;;;;5.65;2.65;;;27.80;47.80;;;;;;5065984;28;20036;-48
2022/07/13 11:30:54;;;;;;;6.28;2.67;;;27.90;48.10;;;;;;5065985;28;20060;-46
2022/07/13 11:33:20;;;;;;;7.35;3.00;;;27.60;49.50;;;;;;5049058;28;20036;-48
2022/07/13 11:35:50;;;;;;;4.97;2.67;;;27.40;49.10;;;;;;5066130;28;20046;-48
2022/07/13 11:38:16;;;;;;;7.45;2.53;;;27.40;47.20;;;;;;5066588;28;20043;-48
2022/07/13 11:40:45;;;;;;;4.07;1.90;;;27.10;48.40;;;;;;5048476;28;20051;-46
2022/07/13 11:43:12;;;;;;;4.90;2.30;;;27.10;48.90;;;;;;5066694;28;20064;-46
2022/07/13 11:45:40;;;;;;;6.10;2.58;;;27.30;48.10;;;;;;5065063;28;20032;-48
2022/07/13 11:48:09;;;;;;;4.75;2.10;;;26.90;47.00;;;;;;5065896;28;20025;-50
2022/07/13 11:50:39;;;;;;;5.80;2.60;;;26.70;50.70;;;;;;5066448;28;20052;-47
2022/07/13 11:53:06;;;;;;;4.15;2.40;;;26.60;50.60;;;;;;5064432;28;20105;-47
2022/07/13 11:55:32;;;;;;;7.18;3.60;;;26.10;50.90;;;;;;5065753;28;20381;-48
2022/07/13 11:58:00;;;;;;;7.05;3.65;;;25.90;54.50;;;;;;5032599;28;20024;-50
2022/07/13 12:00:26;;;;;;;8.02;6.72;;;25.80;55.90;;;;;;5079032;28;20092;-47
2022/07/13 12:02:56;;;;;;;10.63;7.35;;;25.60;59.00;;;;;;5049207;28;20120;-47
2022/07/13 12:05:28;;;;;;;7.45;6.57;;;25.70;62.00;;;;;;5066849;28;20039;-46
2022/07/13 12:08:04;;;;;;;10.02;6.50;;;25.50;60.30;;;;;;5066532;28;20036;-47
2022/07/13 12:10:31;;;;;;;12.88;8.18;;;25.60;59.70;;;;;;5065888;28;20028;-49
2022/07/13 12:12:59;;;;;;;11.23;8.48;;;25.60;60.80;;;;;;5045847;28;20369;-48
2022/07/13 12:15:25;;;;;;;10.85;9.77;;;25.30;62.70;;;;;;5066337;28;20036;-46
2022/07/13 12:17:53;;;;;;;10.02;6.82;;;25.40;64.00;;;;;;5065778;28;20161;-46
2022/07/13 12:20:26;;;;;;;9.75;7.88;;;25.30;61.50;;;;;;5064907;28;20028;-49
2022/07/13 12:22:54;;;;;;;10.65;9.57;;;25.00;62.60;;;;;;5066183;28;20044;-47
2022/07/13 12:25:25;;;;;;;9.70;8.70;;;24.90;64.10;;;;;;5064919;28;20036;-46
2022/07/13 12:27:52;;;;;;;11.40;9.88;;;24.80;62.60;;;;;;5065699;28;20039;-47
2022/07/13 12:30:17;;;;;;;12.85;11.02;;;24.50;64.80;;;;;;5064714;28;20064;-47
2022/07/13 12:32:56;;;;;;;7.80;6.97;;;24.40;65.50;;;;;;5046829;28;20060;-46
2022/07/13 12:35:35;;;;;;;11.75;6.28;;;24.40;64.00;;;;;;5047910;28;20047;-50
2022/07/13 12:38:03;;;;;;;8.80;5.73;;;24.20;65.50;;;;;;5064238;28;20107;-46
2022/07/13 12:40:43;;;;;;;6.88;4.22;;;23.80;65.80;;;;;;5044220;28;20107;-49
2022/07/13 12:43:22;;;;;;;8.30;4.10;;;23.70;66.80;;;;;;5046745;28;20370;-46
2022/07/13 12:45:58;;;;;;;5.43;4.00;;;23.60;66.60;;;;;;5046255;28;20047;-55
2022/07/13 12:48:26;;;;;;;8.68;3.72;;;23.60;68.10;;;;;;5047211;28;20040;-49
2022/07/13 12:50:59;;;;;;;9.40;3.85;;;23.70;68.40;;;;;;5055199;28;20517;-52
2022/07/13 12:53:43;;;;;;;8.13;3.58;;;23.90;68.00;;;;;;5046653;28;20397;-48
2022/07/13 12:56:09;;;;;;;9.60;4.10;;;23.90;67.80;;;;;;5063625;28;20154;-47